Time;durP1;ratioP1;P1;durP2;ratioP2;P2;SDS_P1;SDS_P2;PMS_P1;PMS_P2;Temp;Humidity;BMP_temperature;BMP_pressure;BME280_temperature;BME280_humidity;BME280_pressure;Samples;Min_cycle;Max_cycle;Signal;HPM_P1;HPM_P2
2023/07/02 00:01:11;;;;;;;67.90;5.90;;;18.40;99.90;;;;;;5065389;28;20175;-79
2023/07/02 00:03:40;;;;;;;72.10;6.00;;;18.50;99.90;;;;;;5066170;28;20399;-79
2023/07/02 00:06:06;;;;;;;68.97;6.17;;;18.40;99.90;;;;;;5065557;28;20169;-79
2023/07/02 00:08:32;;;;;;;67.50;5.70;;;18.40;99.90;;;;;;5065884;28;20445;-79
2023/07/02 00:10:57;;;;;;;67.90;6.03;;;18.30;99.90;;;;;;5066114;28;20490;-80
2023/07/02 00:13:23;;;;;;;67.97;6.03;;;18.30;99.90;;;;;;5064364;28;20197;-79
2023/07/02 00:15:49;;;;;;;69.77;6.30;;;18.40;99.90;;;;;;5064907;28;20172;-80
2023/07/02 00:18:17;;;;;;;68.00;7.07;;;18.40;99.90;;;;;;5045924;28;20691;-79
2023/07/02 00:20:43;;;;;;;68.93;7.27;;;18.30;99.90;;;;;;5065305;28;20624;-79
2023/07/02 00:23:09;;;;;;;69.03;6.73;;;18.30;99.90;;;;;;5047836;28;20410;-79
2023/07/02 00:25:36;;;;;;;71.07;6.67;;;18.30;99.90;;;;;;5046808;28;20472;-79
2023/07/02 00:28:02;;;;;;;68.37;6.90;;;18.30;99.90;;;;;;5063852;28;20419;-79
2023/07/02 00:30:28;;;;;;;68.10;7.10;;;18.30;99.90;;;;;;5064397;28;20391;-79
2023/07/02 00:32:54;;;;;;;72.87;6.00;;;18.30;99.90;;;;;;5064862;28;21037;-79
2023/07/02 00:35:19;;;;;;;66.77;5.87;;;18.30;99.90;;;;;;5046142;28;20189;-79
2023/07/02 00:37:45;;;;;;;68.70;6.00;;;18.30;99.90;;;;;;5064199;28;20590;-79
2023/07/02 00:40:11;;;;;;;69.83;6.30;;;18.30;99.90;;;;;;5065072;28;20176;-79
2023/07/02 00:42:37;;;;;;;70.60;5.67;;;18.30;99.90;;;;;;5062941;28;20169;-79
2023/07/02 00:45:03;;;;;;;70.80;6.03;;;18.40;99.90;;;;;;5064904;28;20399;-79
2023/07/02 00:47:34;;;;;;;68.57;5.70;;;18.30;99.90;;;;;;5065277;28;20185;-79
2023/07/02 00:50:01;;;;;;;71.27;6.50;;;18.30;99.90;;;;;;5064368;28;20398;-79
2023/07/02 00:52:27;;;;;;;66.87;5.50;;;18.40;99.90;;;;;;5062999;28;20970;-79
2023/07/02 00:54:53;;;;;;;74.03;6.53;;;18.30;99.90;;;;;;5064939;28;20483;-79
2023/07/02 00:57:19;;;;;;;69.70;6.60;;;18.20;99.90;;;;;;5063762;28;20458;-79
2023/07/02 00:59:45;;;;;;;68.57;6.17;;;18.20;99.90;;;;;;5064007;28;20165;-79
2023/07/02 01:02:12;;;;;;;71.83;8.03;;;18.10;99.90;;;;;;5045482;28;20403;-79
2023/07/02 01:04:38;;;;;;;71.17;7.87;;;18.20;99.90;;;;;;5062984;28;20247;-79
2023/07/02 01:07:08;;;;;;;73.37;8.40;;;18.20;99.90;;;;;;5046534;28;20431;-79
2023/07/02 01:09:34;;;;;;;70.73;8.20;;;18.10;99.90;;;;;;5064664;28;20434;-79
2023/07/02 01:12:04;;;;;;;75.00;9.20;;;18.00;99.90;;;;;;5062646;28;20837;-79
2023/07/02 01:14:35;;;;;;;72.70;8.57;;;18.00;99.90;;;;;;5045350;28;20157;-78
2023/07/02 01:17:05;;;;;;;75.07;9.90;;;17.90;99.90;;;;;;5061251;28;20391;-78
2023/07/02 01:19:45;;;;;;;74.73;10.43;;;17.90;99.90;;;;;;5063635;28;20406;-78
2023/07/02 01:22:12;;;;;;;71.97;8.70;;;17.80;99.90;;;;;;5063618;28;20410;-79
2023/07/02 01:24:41;;;;;;;71.70;9.80;;;17.90;99.90;;;;;;5061538;28;20406;-79
2023/07/02 01:27:07;;;;;;;73.77;10.67;;;17.80;99.90;;;;;;5059978;28;20981;-79
2023/07/02 01:29:36;;;;;;;75.17;11.27;;;17.80;99.90;;;;;;5042000;28;20435;-79
2023/07/02 01:32:02;;;;;;;78.90;10.47;;;17.80;98.00;;;;;;5042172;28;20509;-79
2023/07/02 01:34:28;;;;;;;77.17;10.70;;;17.70;99.90;;;;;;5061251;28;20411;-79
2023/07/02 01:36:54;;;;;;;79.10;10.70;;;17.80;98.70;;;;;;5041944;28;20422;-79
2023/07/02 01:39:19;;;;;;;76.00;11.03;;;17.80;99.90;;;;;;5060969;28;20184;-79
2023/07/02 01:41:53;;;;;;;77.20;11.37;;;17.80;96.60;;;;;;5041809;28;20175;-78
2023/07/02 01:44:19;;;;;;;75.17;13.80;;;17.80;97.70;;;;;;5060040;28;20640;-79
2023/07/02 01:46:48;;;;;;;79.17;13.20;;;17.70;94.20;;;;;;5058839;28;20414;-79
2023/07/02 01:49:18;;;;;;;77.30;11.00;;;17.60;97.50;;;;;;5059112;28;20498;-79
2023/07/02 01:51:51;;;;;;;77.57;11.57;;;17.60;97.50;;;;;;5060410;28;20447;-79
2023/07/02 01:54:21;;;;;;;82.37;12.20;;;17.60;95.20;;;;;;5061309;28;20403;-79
2023/07/02 01:56:47;;;;;;;79.43;13.17;;;17.60;96.10;;;;;;5043166;28;20411;-79
2023/07/02 01:59:13;;;;;;;78.80;13.50;;;17.60;96.70;;;;;;5042706;28;20458;-79
2023/07/02 02:01:40;;;;;;;81.67;14.03;;;17.50;94.80;;;;;;5060825;28;20218;-78
2023/07/02 02:04:07;;;;;;;82.03;15.03;;;17.60;95.00;;;;;;5059919;28;20399;-79
2023/07/02 02:09:03;;;;;;;85.53;14.00;;;17.60;93.80;;;;;;5056838;28;20467;-79
2023/07/02 02:11:28;;;;;;;80.87;15.73;;;17.50;94.60;;;;;;5057094;28;20443;-79
2023/07/02 02:13:54;;;;;;;81.47;15.13;;;17.60;92.80;;;;;;5057430;28;20431;-79
2023/07/02 02:16:20;;;;;;;80.53;15.03;;;17.50;92.40;;;;;;5057501;28;20219;-79
2023/07/02 02:18:46;;;;;;;83.13;14.10;;;17.60;92.10;;;;;;5056612;28;20594;-79
2023/07/02 02:21:11;;;;;;;85.57;13.53;;;17.40;95.80;;;;;;5055834;28;20457;-79
2023/07/02 02:23:37;;;;;;;84.07;14.17;;;17.50;94.30;;;;;;5057277;28;20167;-79
2023/07/02 02:26:03;;;;;;;79.07;13.17;;;17.50;92.70;;;;;;5057246;28;20157;-79
2023/07/02 02:28:32;;;;;;;78.03;12.50;;;17.40;94.60;;;;;;5056077;28;20253;-79
2023/07/02 02:30:57;;;;;;;81.00;14.40;;;17.40;93.70;;;;;;5057965;28;20157;-79
2023/07/02 02:33:23;;;;;;;79.50;14.50;;;17.50;92.70;;;;;;5057835;28;20433;-79
2023/07/02 02:35:48;;;;;;;80.80;12.77;;;17.50;92.60;;;;;;5058240;28;20629;-79
2023/07/02 02:38:14;;;;;;;80.23;14.27;;;17.50;92.10;;;;;;5056728;28;20181;-79
2023/07/02 02:40:40;;;;;;;81.60;14.30;;;17.40;91.80;;;;;;5056182;28;20161;-79
2023/07/02 02:43:06;;;;;;;82.83;15.00;;;17.40;93.30;;;;;;5057251;28;20234;-79
2023/07/02 02:45:32;;;;;;;83.50;15.50;;;17.50;92.30;;;;;;5056434;28;20204;-79
2023/07/02 02:47:58;;;;;;;93.23;16.03;;;17.50;90.60;;;;;;5057072;28;20423;-79
2023/07/02 02:50:27;;;;;;;92.63;16.00;;;17.40;92.00;;;;;;5057026;28;20173;-79
2023/07/02 02:52:52;;;;;;;82.50;14.00;;;17.20;94.10;;;;;;5057132;28;20196;-79
2023/07/02 02:55:18;;;;;;;85.30;15.03;;;17.20;95.20;;;;;;5056717;28;20411;-79
2023/07/02 02:57:44;;;;;;;86.20;16.60;;;17.20;93.70;;;;;;5055815;28;20192;-79
2023/07/02 03:00:11;;;;;;;81.73;13.47;;;17.20;95.00;;;;;;5057031;28;20211;-79
2023/07/02 03:02:37;;;;;;;84.57;16.30;;;17.10;96.40;;;;;;5057042;28;20625;-79
2023/07/02 03:05:03;;;;;;;84.60;15.40;;;17.20;94.20;;;;;;5057823;28;20414;-79
2023/07/02 03:07:29;;;;;;;83.20;16.13;;;17.30;93.80;;;;;;5060397;28;20954;-80
2023/07/02 03:09:55;;;;;;;86.03;15.90;;;17.20;91.60;;;;;;5060627;28;20443;-79
2023/07/02 03:12:21;;;;;;;80.07;14.67;;;17.20;92.00;;;;;;5060490;28;20196;-79
2023/07/02 03:14:51;;;;;;;82.57;15.07;;;17.20;93.70;;;;;;5058273;28;20168;-79
2023/07/02 03:17:17;;;;;;;81.37;15.07;;;17.20;92.10;;;;;;5059874;28;20430;-79
2023/07/02 03:19:42;;;;;;;83.77;14.27;;;17.10;92.70;;;;;;5059885;28;20964;-79
2023/07/02 03:22:08;;;;;;;86.10;13.53;;;17.10;94.00;;;;;;5059937;28;20632;-79
2023/07/02 03:24:34;;;;;;;86.70;15.23;;;17.00;96.80;;;;;;5059905;28;20168;-79
2023/07/02 03:26:59;;;;;;;83.60;16.17;;;17.10;94.40;;;;;;5058079;28;20266;-79
2023/07/02 03:29:26;;;;;;;83.77;14.90;;;17.10;93.90;;;;;;5059892;28;20610;-79
2023/07/02 03:31:52;;;;;;;81.87;15.73;;;17.10;93.90;;;;;;5058920;28;20200;-79
2023/07/02 03:34:17;;;;;;;84.97;14.57;;;17.10;93.00;;;;;;5058637;28;20456;-79
2023/07/02 03:36:44;;;;;;;83.97;15.00;;;17.10;94.00;;;;;;5058797;28;20169;-79
2023/07/02 03:39:10;;;;;;;81.90;15.70;;;17.10;93.60;;;;;;5057381;28;20532;-79
2023/07/02 03:41:36;;;;;;;85.50;14.27;;;17.10;93.10;;;;;;5058988;28;20404;-79
2023/07/02 03:44:01;;;;;;;83.53;16.17;;;17.10;92.80;;;;;;5059154;28;20200;-79
2023/07/02 03:46:27;;;;;;;88.07;16.20;;;17.00;94.40;;;;;;5059038;28;20429;-79
2023/07/02 03:48:52;;;;;;;88.77;16.07;;;17.00;94.60;;;;;;5059741;28;20196;-79
2023/07/02 03:51:18;;;;;;;85.20;16.80;;;17.00;93.20;;;;;;5061085;28;20196;-79
2023/07/02 03:53:44;;;;;;;88.60;15.20;;;17.10;94.00;;;;;;5058657;28;20208;-79
2023/07/02 03:56:09;;;;;;;86.10;16.57;;;17.10;93.60;;;;;;5060452;28;20640;-79
2023/07/02 03:58:35;;;;;;;82.63;15.10;;;17.20;92.30;;;;;;5059905;28;20267;-79
2023/07/02 04:01:01;;;;;;;83.47;15.57;;;17.10;91.90;;;;;;5058893;28;20164;-79
2023/07/02 04:03:27;;;;;;;81.17;16.97;;;17.10;92.90;;;;;;5059617;28;20248;-79
2023/07/02 04:05:52;;;;;;;87.17;15.97;;;17.10;93.10;;;;;;5058912;28;20399;-79
2023/07/02 04:08:20;;;;;;;86.20;16.80;;;17.10;93.50;;;;;;5058721;28;20279;-79
2023/07/02 04:10:46;;;;;;;84.33;16.00;;;17.00;94.90;;;;;;5059452;28;20160;-79
2023/07/02 04:13:12;;;;;;;85.57;18.50;;;17.00;96.00;;;;;;5058591;28;20458;-79
2023/07/02 04:15:38;;;;;;;87.90;16.87;;;17.00;95.50;;;;;;5058153;28;20168;-79
2023/07/02 04:18:04;;;;;;;85.07;15.00;;;16.90;98.40;;;;;;5058302;28;20181;-79
2023/07/02 04:20:30;;;;;;;90.67;18.77;;;17.00;97.10;;;;;;5057948;28;20427;-79
2023/07/02 04:22:56;;;;;;;91.80;18.17;;;17.10;95.40;;;;;;5058173;28;20593;-79
2023/07/02 04:25:23;;;;;;;99.73;17.53;;;17.20;94.60;;;;;;5057866;28;21005;-79
2023/07/02 04:27:48;;;;;;;97.77;17.40;;;17.20;93.40;;;;;;5056110;28;20239;-79
2023/07/02 04:30:14;;;;;;;87.23;16.50;;;17.20;95.00;;;;;;5057805;28;20399;-79
2023/07/02 04:32:40;;;;;;;87.17;17.70;;;17.10;96.60;;;;;;5057197;28;20443;-79
2023/07/02 04:35:11;;;;;;;94.80;19.10;;;17.20;95.80;;;;;;5057795;28;20394;-79
2023/07/02 04:37:36;;;;;;;93.83;17.50;;;17.20;94.30;;;;;;5057968;28;20933;-79
2023/07/02 04:40:11;;;;;;;91.80;18.23;;;17.10;96.20;;;;;;5055963;28;20403;-79
2023/07/02 04:42:38;;;;;;;95.40;18.83;;;17.20;95.80;;;;;;5057804;28;20172;-79
2023/07/02 04:45:08;;;;;;;90.70;18.33;;;17.00;98.10;;;;;;5057451;28;20430;-79
2023/07/02 04:47:37;;;;;;;94.60;18.60;;;17.20;97.40;;;;;;5057460;28;21010;-79
2023/07/02 04:50:03;;;;;;;93.50;20.53;;;17.20;95.60;;;;;;5057512;28;20407;-79
2023/07/02 04:52:28;;;;;;;90.17;18.40;;;17.30;94.60;;;;;;5057366;28;20453;-79
2023/07/02 04:54:55;;;;;;;89.47;17.60;;;17.40;93.40;;;;;;5057347;28;20822;-79
2023/07/02 04:57:21;;;;;;;90.47;17.43;;;17.50;93.60;;;;;;5057760;28;20190;-79
2023/07/02 04:59:47;;;;;;;93.77;18.67;;;17.50;94.00;;;;;;5057433;28;20431;-79
2023/07/02 05:02:13;;;;;;;86.37;15.73;;;17.40;94.70;;;;;;5057434;28;20219;-79
2023/07/02 05:04:38;;;;;;;91.03;17.53;;;17.50;95.20;;;;;;5057116;28;20395;-79
2023/07/02 05:07:05;;;;;;;88.80;17.50;;;17.60;93.50;;;;;;5056963;28;20528;-79
2023/07/02 05:09:31;;;;;;;97.70;17.70;;;17.70;91.10;;;;;;5057780;28;20169;-79
2023/07/02 05:11:57;;;;;;;90.70;17.73;;;17.60;92.10;;;;;;5056973;28;20458;-79
2023/07/02 05:14:23;;;;;;;92.57;17.70;;;17.50;94.80;;;;;;5057087;28;20762;-79
2023/07/02 05:16:49;;;;;;;95.67;18.40;;;17.50;94.70;;;;;;5057055;28;20398;-79
2023/07/02 05:19:15;;;;;;;96.77;17.50;;;17.50;94.80;;;;;;5057116;28;20462;-79
2023/07/02 05:21:41;;;;;;;88.27;17.60;;;17.50;94.00;;;;;;5057137;28;20918;-79
2023/07/02 05:24:08;;;;;;;90.97;16.80;;;17.50;96.10;;;;;;5056743;28;20446;-79
2023/07/02 05:26:35;;;;;;;95.43;16.37;;;17.50;95.60;;;;;;5057196;28;20164;-79
2023/07/02 05:29:01;;;;;;;95.50;16.87;;;17.50;94.80;;;;;;5055976;28;20457;-79
2023/07/02 05:31:26;;;;;;;86.50;16.20;;;17.50;94.10;;;;;;5056599;28;20469;-79
2023/07/02 05:33:53;;;;;;;96.43;19.83;;;17.50;96.60;;;;;;5056691;28;20400;-79
2023/07/02 05:36:19;;;;;;;93.73;17.90;;;17.60;93.90;;;;;;5056705;28;20157;-79
2023/07/02 05:38:45;;;;;;;89.47;16.90;;;17.60;95.50;;;;;;5056889;28;20468;-79
2023/07/02 05:41:10;;;;;;;94.77;18.50;;;17.70;93.60;;;;;;5057298;28;20399;-79
2023/07/02 05:43:36;;;;;;;94.60;17.33;;;17.70;93.20;;;;;;5056021;28;20161;-79
2023/07/02 05:46:02;;;;;;;91.23;17.00;;;17.80;93.00;;;;;;5056150;28;20165;-79
2023/07/02 05:48:27;;;;;;;92.30;16.37;;;17.90;92.00;;;;;;5056445;28;20185;-79
2023/07/02 05:50:54;;;;;;;90.43;17.63;;;18.00;88.70;;;;;;5056647;28;20659;-79
2023/07/02 05:53:20;;;;;;;98.33;19.07;;;17.90;90.60;;;;;;5056489;28;20169;-79
2023/07/02 05:55:45;;;;;;;91.70;19.30;;;18.00;89.10;;;;;;5056909;28;20431;-79
2023/07/02 05:58:11;;;;;;;95.03;18.37;;;17.90;89.50;;;;;;5056888;28;20529;-79
2023/07/02 06:00:37;;;;;;;92.63;19.07;;;17.90;93.20;;;;;;5056531;28;20168;-79
2023/07/02 06:03:03;;;;;;;96.33;18.53;;;18.00;91.60;;;;;;5055049;28;20693;-79
2023/07/02 06:05:28;;;;;;;91.40;17.13;;;18.00;90.60;;;;;;5055240;28;20175;-79
2023/07/02 06:07:55;;;;;;;91.57;17.10;;;18.00;91.70;;;;;;5055523;28;20454;-79
2023/07/02 06:10:21;;;;;;;96.67;18.77;;;18.10;90.30;;;;;;5055068;28;20169;-79
2023/07/02 06:12:46;;;;;;;102.27;19.07;;;18.10;90.30;;;;;;5055427;28;20447;-78
2023/07/02 06:15:12;;;;;;;98.80;18.80;;;18.10;85.20;;;;;;5054724;28;20165;-78
2023/07/02 06:17:37;;;;;;;93.13;18.30;;;18.10;86.80;;;;;;5054493;28;20189;-78
2023/07/02 06:20:04;;;;;;;95.10;18.40;;;18.10;87.90;;;;;;5054304;28;20169;-78
2023/07/02 06:22:31;;;;;;;95.30;17.93;;;18.20;85.40;;;;;;5054789;28;20644;-78
2023/07/02 06:24:56;;;;;;;94.40;18.70;;;18.20;86.20;;;;;;5054795;28;20416;-78
2023/07/02 06:27:22;;;;;;;97.23;18.67;;;18.20;87.80;;;;;;5054126;28;20464;-78
2023/07/02 06:29:48;;;;;;;94.77;18.37;;;18.30;79.80;;;;;;5054815;28;20307;-78
2023/07/02 06:32:13;;;;;;;91.50;18.97;;;18.40;80.30;;;;;;5054327;28;20279;-78
2023/07/02 06:34:39;;;;;;;100.43;18.63;;;18.40;71.00;;;;;;5054060;28;20529;-78
2023/07/02 06:37:05;;;;;;;93.60;18.50;;;18.40;71.10;;;;;;5054232;28;20176;-78
2023/07/02 06:39:31;;;;;;;100.27;18.07;;;18.30;77.00;;;;;;5054330;28;20168;-78
2023/07/02 06:41:57;;;;;;;96.20;19.70;;;18.50;75.10;;;;;;5058097;28;20435;-77
2023/07/02 06:44:22;;;;;;;91.10;18.07;;;18.60;67.80;;;;;;5057150;28;20612;-78
2023/07/02 06:46:48;;;;;;;94.03;18.67;;;18.70;69.90;;;;;;5057312;28;20199;-78
2023/07/02 06:49:14;;;;;;;90.50;19.53;;;18.80;73.30;;;;;;5058954;28;20188;-77
2023/07/02 06:51:39;;;;;;;93.63;19.67;;;18.90;66.20;;;;;;5059294;28;20201;-78
2023/07/02 06:54:06;;;;;;;105.40;19.97;;;18.90;58.80;;;;;;5059227;28;20532;-77
2023/07/02 06:56:33;;;;;;;95.50;18.57;;;19.10;55.40;;;;;;5058700;28;20637;-78
2023/07/02 06:58:59;;;;;;;95.20;20.00;;;19.10;56.70;;;;;;5058177;28;20498;-78
2023/07/02 07:01:25;;;;;;;93.40;17.60;;;19.30;55.70;;;;;;5058028;28;20476;-78
2023/07/02 07:03:51;;;;;;;90.17;18.50;;;19.40;41.30;;;;;;5059033;28;20490;-77
2023/07/02 07:06:17;;;;;;;94.80;17.97;;;19.50;39.70;;;;;;5058942;28;20195;-77
2023/07/02 07:08:42;;;;;;;98.60;18.90;;;19.60;40.10;;;;;;5056946;28;20538;-78
2023/07/02 07:11:08;;;;;;;102.67;19.20;;;19.50;31.10;;;;;;5058171;28;20169;-78
2023/07/02 07:13:34;;;;;;;96.30;16.97;;;19.50;36.90;;;;;;5058321;28;20395;-78
2023/07/02 07:15:59;;;;;;;89.47;16.63;;;19.60;30.00;;;;;;5057874;28;20165;-78
2023/07/02 07:18:25;;;;;;;91.87;17.47;;;19.50;36.50;;;;;;5058201;28;20709;-78
2023/07/02 07:20:52;;;;;;;93.27;17.80;;;19.60;38.90;;;;;;5058777;28;20188;-78
2023/07/02 07:23:18;;;;;;;98.97;17.03;;;19.70;34.70;;;;;;5058273;28;20168;-78
2023/07/02 07:25:44;;;;;;;97.30;16.97;;;19.80;30.90;;;;;;5058146;28;20439;-78
2023/07/02 07:28:15;;;;;;;101.00;17.63;;;19.80;30.90;;;;;;5059129;28;20437;-78
2023/07/02 07:30:44;;;;;;;93.27;14.93;;;19.70;28.70;;;;;;5058283;28;20422;-78
2023/07/02 07:33:10;;;;;;;92.73;16.13;;;19.80;24.60;;;;;;5059275;28;20485;-78
2023/07/02 07:35:36;;;;;;;98.80;17.17;;;19.80;16.40;;;;;;5059871;28;20397;-77
2023/07/02 07:38:02;;;;;;;89.00;15.80;;;19.70;10.40;;;;;;5059502;28;20422;-78
2023/07/02 07:40:28;;;;;;;92.67;15.20;;;19.80;13.20;;;;;;5057752;28;20408;-78
2023/07/02 07:42:54;;;;;;;88.83;14.10;;;19.80;13.30;;;;;;5057960;28;20473;-78
2023/07/02 07:45:20;;;;;;;89.87;15.40;;;20.00;7.60;;;;;;5058173;28;20403;-78
2023/07/02 07:47:46;;;;;;;93.00;14.00;;;19.90;1.00;;;;;;5058504;28;20202;-78
2023/07/02 07:50:11;;;;;;;89.43;15.20;;;19.90;1.00;;;;;;5059022;28;20169;-78
2023/07/02 07:52:42;;;;;;;93.40;14.70;;;20.20;1.00;;;;;;5058904;28;20245;-78
2023/07/02 07:55:08;;;;;;;85.10;13.93;;;20.40;1.00;;;;;;5059116;28;20433;-78
2023/07/02 07:57:35;;;;;;;86.97;13.63;;;20.40;1.00;;;;;;5059301;28;20789;-78
2023/07/02 08:00:04;;;;;;;97.70;14.63;;;20.40;1.00;;;;;;5056778;28;20415;-78
2023/07/02 08:02:29;;;;;;;85.57;14.17;;;20.40;1.00;;;;;;5056581;28;20407;-77
2023/07/02 08:04:55;;;;;;;87.80;14.00;;;20.40;1.00;;;;;;5058965;28;20414;-78
2023/07/02 08:07:20;;;;;;;95.53;15.30;;;20.30;1.00;;;;;;5133291;22;20188;-79
2023/07/02 08:09:46;;;;;;;87.67;13.93;;;20.40;1.00;;;;;;5085612;28;20234;-79
2023/07/02 08:12:12;;;;;;;92.57;14.60;;;20.60;1.00;;;;;;5086314;28;20255;-80
2023/07/02 08:14:37;;;;;;;91.47;14.77;;;20.70;1.00;;;;;;5086132;28;20156;-80
2023/07/02 08:17:03;;;;;;;90.00;12.47;;;20.90;1.00;;;;;;5086623;28;20193;-79
2023/07/02 08:19:29;;;;;;;87.40;12.10;;;20.90;1.00;;;;;;5068891;28;20158;-79
2023/07/02 08:21:55;;;;;;;87.90;12.93;;;20.80;1.00;;;;;;5086912;28;20285;-79
2023/07/02 08:24:20;;;;;;;88.13;13.70;;;20.80;1.00;;;;;;5083142;28;20200;-79
2023/07/02 08:26:47;;;;;;;87.30;14.00;;;20.80;1.00;;;;;;5084153;28;20175;-79
2023/07/02 08:29:13;;;;;;;87.27;11.90;;;20.80;1.00;;;;;;5065440;28;20202;-78
2023/07/02 08:31:40;;;;;;;87.37;14.03;;;20.70;1.00;;;;;;5081825;28;20500;-78
2023/07/02 08:34:05;;;;;;;89.40;15.33;;;20.60;1.00;;;;;;5081080;28;20239;-79
2023/07/02 08:36:31;;;;;;;92.77;15.53;;;20.60;1.00;;;;;;5082672;28;20427;-78
2023/07/02 08:38:57;;;;;;;91.67;15.50;;;20.60;1.00;;;;;;5082575;28;20214;-79
2023/07/02 08:41:23;;;;;;;91.47;15.67;;;20.70;1.00;;;;;;5082325;28;20214;-78
2023/07/02 08:43:49;;;;;;;95.70;17.40;;;20.60;1.00;;;;;;5063735;28;20163;-79
2023/07/02 08:46:16;;;;;;;91.00;15.33;;;20.50;1.00;;;;;;5082301;28;20394;-79
2023/07/02 08:48:42;;;;;;;89.07;15.90;;;20.60;1.00;;;;;;5082385;28;20424;-79
2023/07/02 08:51:07;;;;;;;89.17;16.60;;;20.70;1.00;;;;;;5062103;28;20398;-79
2023/07/02 08:53:33;;;;;;;88.37;13.17;;;20.80;1.00;;;;;;5082486;28;20496;-78
2023/07/02 08:56:08;;;;;;;92.73;14.50;;;20.90;1.00;;;;;;5081545;28;20191;-79
2023/07/02 08:58:34;;;;;;;90.87;12.87;;;20.90;1.00;;;;;;5080594;28;20682;-78
2023/07/02 09:01:10;;;;;;;89.27;14.30;;;20.90;1.00;;;;;;5077925;28;20396;-79
2023/07/02 09:03:37;;;;;;;91.63;13.80;;;21.10;1.00;;;;;;5074855;28;20519;-78
2023/07/02 09:06:07;;;;;;;89.77;14.70;;;21.20;1.00;;;;;;5076681;28;20382;-78
2023/07/02 09:08:36;;;;;;;96.40;17.13;;;21.30;1.00;;;;;;5058010;28;20449;-77
2023/07/02 09:11:16;;;;;;;86.17;13.90;;;21.40;1.00;;;;;;5077149;28;20536;-78
2023/07/02 09:13:53;;;;;;;97.07;15.10;;;21.40;1.00;;;;;;5078878;28;20387;-78
2023/07/02 09:16:33;;;;;;;87.30;15.20;;;21.40;1.00;;;;;;5082542;28;20750;-79
2023/07/02 09:18:59;;;;;;;97.75;20.20;;;21.50;1.00;;;;;;5076876;28;20452;-78
2023/07/02 09:21:48;;;;;;;98.80;29.15;;;21.50;1.00;;;;;;5074606;28;20481;-78
2023/07/02 09:24:23;;;;;;;98.63;17.90;;;21.50;1.00;;;;;;5062157;28;20208;-78
2023/07/02 09:26:53;;;;;;;88.87;17.77;;;21.60;1.00;;;;;;5075947;28;20456;-78
2023/07/02 09:29:30;;;;;;;88.50;18.10;;;21.50;1.00;;;;;;5074511;28;20422;-78
2023/07/02 09:31:58;;;;;;;90.47;17.00;;;21.40;1.00;;;;;;5074815;28;20457;-78
2023/07/02 09:34:50;;;;;;;89.10;15.90;;;21.30;1.00;;;;;;5075251;28;20421;-78
2023/07/02 09:37:16;;;;;;;88.33;14.40;;;21.20;1.00;;;;;;5052295;28;20426;-78
2023/07/02 09:39:42;;;;;;;93.30;15.10;;;21.10;1.00;;;;;;5075871;28;20435;-78
2023/07/02 09:42:09;;;;;;;87.07;14.37;;;21.00;1.00;;;;;;5074727;28;20903;-78
2023/07/02 09:44:35;;;;;;;87.33;14.70;;;21.00;1.00;;;;;;5057346;28;20469;-78
2023/07/02 09:47:03;;;;;;;96.23;17.60;;;21.10;1.00;;;;;;5058001;28;20916;-78
2023/07/02 09:49:39;;;;;;;88.07;16.87;;;21.30;1.00;;;;;;5076403;28;20398;-77
2023/07/02 09:52:16;;;;;;;101.47;18.70;;;21.50;1.00;;;;;;5075832;28;20432;-78
2023/07/02 09:54:42;;;;;;;94.93;18.50;;;21.60;1.00;;;;;;5058679;28;20572;-78
2023/07/02 09:57:08;;;;;;;94.33;16.73;;;21.60;1.00;;;;;;5057520;28;20507;-78
2023/07/02 09:59:34;;;;;;;91.20;17.50;;;21.40;1.00;;;;;;5057207;28;20653;-78
2023/07/02 10:02:00;;;;;;;91.60;16.50;;;21.40;1.00;;;;;;5077343;28;20174;-79
2023/07/02 10:04:26;;;;;;;85.40;16.53;;;21.50;1.00;;;;;;5076352;28;20908;-78
2023/07/02 10:06:54;;;;;;;87.20;17.03;;;21.70;1.00;;;;;;5077159;28;20168;-79
2023/07/02 10:09:21;;;;;;;84.97;15.83;;;21.80;1.00;;;;;;5074797;28;20876;-78
2023/07/02 10:11:48;;;;;;;89.17;16.20;;;22.10;1.00;;;;;;5058855;28;20476;-79
2023/07/02 10:14:13;;;;;;;94.50;16.27;;;22.30;1.00;;;;;;5078723;28;20403;-79
2023/07/02 10:16:53;;;;;;;87.00;16.30;;;22.60;1.00;;;;;;5081709;28;20402;-79
2023/07/02 10:19:20;;;;;;;86.10;15.23;;;22.90;1.00;;;;;;5064235;28;20185;-79
2023/07/02 10:21:49;;;;;;;90.30;13.93;;;23.20;1.00;;;;;;5065139;28;20420;-79
2023/07/02 10:24:17;;;;;;;86.70;13.43;;;23.40;1.00;;;;;;5082011;28;20795;-79
2023/07/02 10:26:59;;;;;;;90.10;13.50;;;23.50;1.00;;;;;;5062590;28;20406;-78
2023/07/02 10:29:28;;;;;;;85.60;12.53;;;23.60;1.00;;;;;;5081902;28;20379;-79
2023/07/02 10:31:57;;;;;;;84.30;12.33;;;23.40;1.00;;;;;;5082801;28;20449;-79
2023/07/02 10:34:34;;;;;;;87.13;12.33;;;23.10;1.00;;;;;;5066163;28;20882;-80
2023/07/02 10:37:01;;;;;;;86.23;12.20;;;22.90;1.00;;;;;;5083967;28;20954;-80
2023/07/02 10:39:29;;;;;;;82.70;10.40;;;22.50;1.00;;;;;;5083591;28;20467;-80
2023/07/02 10:42:04;;;;;;;79.60;11.10;;;22.20;1.00;;;;;;5065772;28;20410;-81
2023/07/02 10:44:30;;;;;;;84.37;13.30;;;21.90;1.00;;;;;;5086120;28;20442;-80
2023/07/02 10:46:57;;;;;;;84.50;11.80;;;21.80;1.00;;;;;;5087885;28;20493;-79
2023/07/02 10:49:33;;;;;;;86.07;13.57;;;21.60;1.00;;;;;;5086515;28;20225;-79
2023/07/02 10:52:00;;;;;;;90.07;13.27;;;21.40;1.00;;;;;;5070844;28;20461;-81
2023/07/02 10:54:26;;;;;;;92.80;12.40;;;21.40;1.00;;;;;;5089977;28;20423;-80
2023/07/02 10:56:57;;;;;;;84.90;12.77;;;21.50;1.00;;;;;;5088059;28;20394;-78
2023/07/02 10:59:24;;;;;;;86.00;14.67;;;21.40;1.00;;;;;;5085092;28;20378;-79
2023/07/02 11:01:50;;;;;;;90.53;15.40;;;21.30;1.00;;;;;;5086472;28;20414;-80
2023/07/02 11:04:16;;;;;;;87.70;16.03;;;21.20;1.00;;;;;;5068034;28;20987;-80
2023/07/02 11:06:42;;;;;;;87.13;15.03;;;21.10;1.00;;;;;;5085196;28;20439;-80
2023/07/02 11:09:17;;;;;;;87.60;15.60;;;21.10;1.00;;;;;;5086102;28;20210;-79
2023/07/02 11:11:54;;;;;;;86.57;14.93;;;21.20;1.00;;;;;;5085167;28;20194;-79
2023/07/02 11:14:34;;;;;;;86.70;14.60;;;21.50;1.00;;;;;;5085963;28;20424;-79
2023/07/02 11:17:05;;;;;;;89.77;13.67;;;21.60;1.00;;;;;;5084358;28;20411;-79
2023/07/02 11:19:34;;;;;;;88.50;15.17;;;21.80;1.00;;;;;;5066993;28;20432;-79
2023/07/02 11:22:02;;;;;;;90.40;12.77;;;21.70;1.00;;;;;;5084872;28;20738;-79
2023/07/02 11:24:35;;;;;;;86.40;13.80;;;21.90;1.00;;;;;;5084006;28;20462;-78
2023/07/02 11:27:02;;;;;;;87.70;14.60;;;22.10;1.00;;;;;;5082929;28;20403;-79
2023/07/02 11:29:30;;;;;;;89.33;13.30;;;22.40;1.00;;;;;;5084545;28;20483;-79
2023/07/02 11:32:05;;;;;;;89.80;13.33;;;22.80;1.00;;;;;;5084785;28;20453;-79
2023/07/02 11:34:31;;;;;;;91.73;12.03;;;23.20;1.00;;;;;;5087898;28;20411;-79
2023/07/02 11:36:56;;;;;;;79.30;11.17;;;23.70;1.00;;;;;;5084604;28;20421;-80
2023/07/02 11:39:22;;;;;;;90.87;12.30;;;23.80;1.00;;;;;;5065972;28;20195;-80
2023/07/02 11:41:50;;;;;;;85.93;11.70;;;24.00;1.00;;;;;;5085165;28;20164;-79
2023/07/02 11:44:16;;;;;;;87.63;11.53;;;24.30;1.00;;;;;;5085728;28;20163;-80
2023/07/02 11:46:42;;;;;;;83.13;9.97;;;24.50;1.00;;;;;;5066956;28;20423;-79
2023/07/02 11:49:08;;;;;;;86.53;12.30;;;24.50;1.00;;;;;;5088009;28;20419;-79
2023/07/02 11:51:38;;;;;;;82.37;11.00;;;24.60;1.00;;;;;;5067317;28;20192;-80
2023/07/02 11:54:05;;;;;;;83.27;10.00;;;24.60;1.00;;;;;;5086294;28;20378;-79
2023/07/02 11:56:32;;;;;;;82.27;10.60;;;24.50;1.00;;;;;;5084820;28;20458;-80
2023/07/02 11:58:58;;;;;;;84.47;11.23;;;24.20;1.00;;;;;;5070391;28;20437;-80
2023/07/02 12:01:23;;;;;;;84.50;10.33;;;24.00;1.00;;;;;;5088607;28;20402;-79
2023/07/02 12:03:49;;;;;;;80.37;11.00;;;24.40;1.00;;;;;;5088234;28;20391;-80
2023/07/02 12:06:15;;;;;;;82.70;10.67;;;24.60;1.00;;;;;;5083279;28;20232;-80
2023/07/02 12:08:41;;;;;;;88.30;11.63;;;24.80;1.00;;;;;;5069437;28;20226;-80
2023/07/02 12:11:07;;;;;;;86.27;11.23;;;25.10;1.00;;;;;;5088230;28;20224;-80
2023/07/02 12:13:33;;;;;;;83.30;10.60;;;25.30;1.00;;;;;;5065235;28;20221;-80
2023/07/02 12:15:58;;;;;;;83.20;10.33;;;25.30;1.00;;;;;;5083295;28;20452;-80
2023/07/02 12:18:24;;;;;;;81.47;10.60;;;25.10;1.00;;;;;;5082350;28;20185;-79
2023/07/02 12:20:50;;;;;;;84.77;11.13;;;25.10;1.00;;;;;;5082231;28;20186;-80
2023/07/02 12:23:16;;;;;;;82.60;9.33;;;24.90;1.00;;;;;;5081040;28;20225;-80
2023/07/02 12:25:41;;;;;;;81.23;9.97;;;24.80;1.00;;;;;;5084492;28;20410;-80
2023/07/02 12:28:07;;;;;;;86.20;10.47;;;24.60;1.00;;;;;;5082826;28;20721;-79
2023/07/02 12:30:33;;;;;;;81.47;10.77;;;24.50;1.00;;;;;;5064367;28;20174;-80
2023/07/02 12:32:59;;;;;;;78.70;8.80;;;24.70;1.00;;;;;;5064036;28;20793;-79